Sti Osceola — V7IW3 — position and weather

sailwx.info

Track history (hours):
 
Tides and Currents Weather Stations Pressure Air Temp Water Temp Dewpoint Dewpoint Depression Visibility Wind Speed Wind Dir Waves Ship Positions

Sti Osceola

Last reported at 2017-Oct-01 23:10 UTC. Time now 2017-Oct-19 02:06 UTC.
Position N 25°28' W 079°33'.
Warning: this ship's position is 17 days out of date.

Length 184 m; draft 8.5 m.

Type: Tanker. MMSI: 538006005.

Date/timePositionNaut miles runAvg speedWind from/ knotsBaromVisibWave heightAir tempDewpointWater temp
2017-Oct-01 23:10N 25°28' W 079°33'311.1
2017-Oct-01 22:56N 25°31' W 079°33'511.2
2017-Oct-01 22:30N 25°36' W 079°32'1111.3
2017-Oct-01 21:30N 25°47' W 079°31'611.6
2017-Oct-01 21:00N 25°53' W 079°29'611.7
2017-Oct-01 20:30N 25°58' W 079°28'611.5
2017-Oct-01 20:00N 26°04' W 079°27'511.1
2017-Oct-01 19:31N 26°10' W 079°26'510.8
2017-Oct-01 19:01N 26°15' W 079°26'  
2017-Sep-28 10:55N 39°06' W 073°25'5 6.5
2017-Sep-28 10:14N 39°10' W 073°23'2 6.2
2017-Sep-28 09:58N 39°12' W 073°22'3 6.1
2017-Sep-28 09:30N 39°14' W 073°21'3 6.2
2017-Sep-28 08:59N 39°17' W 073°20'3 5.9
2017-Sep-28 08:30N 39°20' W 073°19'3 5.9
2017-Sep-28 08:00N 39°23' W 073°17'4 5.4
2017-Sep-28 07:21N 39°26' W 073°16'24 4.7
2017-Sep-28 02:15N 39°50' W 073°21'2 4.8
2017-Sep-28 01:52N 39°52' W 073°20'2 4.8
2017-Sep-28 01:28N 39°54' W 073°19'2 4.7
2017-Sep-28 00:59N 39°56' W 073°20'3 4.7
2017-Sep-28 00:27N 39°58' W 073°20'34 5.1
2017-Sep-27 17:48N 40°25' W 073°48'3 5.9
2017-Sep-27 17:22N 40°27' W 073°50'3 9.0
2017-Sep-27 17:00N 40°29' W 073°53'611.2
2017-Sep-27 16:30N 40°31' W 073°60'510.5
2017-Sep-27 16:00N 40°36' W 074°03'3 4.9
2017-Sep-27 15:28N 40°38' W 074°04'0 0.1
2017-Sep-27 14:58N 40°38' W 074°04'0 0.1
2017-Sep-27 14:28N 40°38' W 074°04'0 0.0
2017-Sep-27 13:58N 40°38' W 074°04'0 0.0
2017-Sep-27 13:28N 40°38' W 074°04'0 0.0
2017-Sep-27 12:58N 40°38' W 074°04'0 0.0
2017-Sep-27 12:28N 40°38' W 074°04'0 0.0
2017-Sep-27 11:55N 40°38' W 074°04'0 0.0
2017-Sep-27 11:28N 40°38' W 074°04'0 0.0
2017-Sep-27 10:58N 40°38' W 074°04'0 0.1
2017-Sep-27 10:31N 40°38' W 074°04'1 2.1
2017-Sep-27 10:01N 40°39' W 074°05'3 6.5
2017-Sep-27 09:30N 40°39' W 074°09'2 4.8
2017-Sep-27 09:00N 40°38' W 074°12'1 1.0
2017-Sep-27 07:34N 40°36' W 074°12'0 0.0
2017-Sep-27 07:28N 40°36' W 074°12'0 0.0
2017-Sep-27 06:58N 40°36' W 074°12'0 0.0
2017-Sep-27 06:22N 40°36' W 074°12'0 0.0
2017-Sep-27 05:52N 40°36' W 074°12'0 0.0
2017-Sep-27 05:28N 40°36' W 074°12'0 0.0
2017-Sep-27 04:58N 40°36' W 074°12'0 0.0
2017-Sep-27 04:28N 40°36' W 074°12'0 0.0
2017-Sep-27 03:58N 40°36' W 074°12'0 0.0
2017-Sep-27 03:22N 40°36' W 074°12'0 0.0
2017-Sep-27 02:58N 40°36' W 074°12'0 0.0
2017-Sep-27 02:28N 40°36' W 074°12'0 0.0
2017-Sep-27 01:52N 40°36' W 074°12'0 0.0
2017-Sep-27 01:25N 40°36' W 074°12'0 0.0
2017-Sep-27 00:22N 40°36' W 074°12'0 0.0
2017-Sep-26 23:43N 40°36' W 074°12'0 0.0
2017-Sep-26 23:28N 40°36' W 074°12'0 0.0
2017-Sep-26 22:43N 40°36' W 074°12'0 0.0
2017-Sep-26 22:28N 40°36' W 074°12'0 0.0
2017-Sep-26 21:49N 40°36' W 074°12'0 0.0
2017-Sep-26 21:28N 40°36' W 074°12'0 0.0
2017-Sep-26 20:58N 40°36' W 074°12'0 0.0
2017-Sep-26 20:22N 40°36' W 074°12'0 0.0
2017-Sep-26 19:52N 40°36' W 074°12'0 0.0
2017-Sep-26 19:28N 40°36' W 074°12'0 0.0
2017-Sep-26 18:55N 40°36' W 074°12'0 0.0
2017-Sep-26 18:25N 40°36' W 074°12'0 0.0
2017-Sep-26 16:58N 40°36' W 074°12'0 0.0
2017-Sep-26 16:25N 40°36' W 074°12'0 0.0
2017-Sep-26 15:58N 40°36' W 074°12'0 0.0
2017-Sep-26 15:28N 40°36' W 074°12'0 0.0
2017-Sep-26 14:55N 40°36' W 074°12'0 0.0
2017-Sep-26 14:22N 40°36' W 074°12'0 0.0
2017-Sep-26 13:46N 40°36' W 074°12'0 0.0
2017-Sep-26 13:28N 40°36' W 074°12'0 0.0
2017-Sep-26 12:52N 40°36' W 074°12'0 0.0
2017-Sep-26 12:28N 40°36' W 074°12'0 0.0
2017-Sep-26 11:40N 40°36' W 074°12'0 0.0
2017-Sep-26 11:28N 40°36' W 074°12'0 0.0
2017-Sep-26 10:58N 40°36' W 074°12'0 0.0
2017-Sep-26 10:28N 40°36' W 074°12'0 0.0
2017-Sep-26 09:58N 40°36' W 074°12'0 0.0
2017-Sep-26 08:55N 40°36' W 074°12'0 0.0
2017-Sep-26 08:28N 40°36' W 074°12'0 0.0
2017-Sep-26 07:46N 40°36' W 074°12'0 0.0
2017-Sep-26 07:16N 40°36' W 074°12'0 0.0
2017-Sep-26 06:58N 40°36' W 074°12'0 0.0
2017-Sep-26 05:28N 40°36' W 074°12'0 0.0
2017-Sep-26 04:58N 40°36' W 074°12'0 0.0
2017-Sep-26 04:28N 40°36' W 074°12'0 0.0
2017-Sep-26 03:58N 40°36' W 074°12'0 0.0
2017-Sep-26 03:28N 40°36' W 074°12'0 0.0
2017-Sep-26 02:58N 40°36' W 074°12'0 0.0
2017-Sep-26 02:10N 40°36' W 074°12'0 0.0
2017-Sep-26 01:52N 40°36' W 074°12'0 0.0
2017-Sep-26 01:28N 40°36' W 074°12'0 0.0
2017-Sep-26 00:58N 40°36' W 074°12'0 0.0
2017-Sep-26 00:10N 40°36' W 074°12'0 0.0
2017-Sep-25 23:55N 40°36' W 074°12'0 0.2
2017-Sep-25 23:31N 40°36' W 074°12'2 4.2
2017-Sep-25 23:00N 40°34' W 074°13'3 5.1
2017-Sep-25 22:29N 40°33' W 074°15'4 3.7
2017-Sep-25 21:22N 40°30' W 074°10'3 8.9
2017-Sep-25 21:00N 40°29' W 074°06'4 9.2
2017-Sep-25 20:30N 40°29' W 074°00'5 9.7
2017-Sep-25 20:01N 40°27' W 073°55'4 8.5
2017-Sep-25 19:30N 40°27' W 073°49'3 6.6
2017-Sep-25 19:00N 40°27' W 073°45'4 7.1
2017-Sep-25 18:30N 40°29' W 073°41'2 3.4
2017-Sep-25 18:00N 40°29' W 073°39'0 0.1
2017-Sep-25 17:23N 40°29' W 073°39'0 0.0
2017-Sep-25 16:11N 40°29' W 073°39'0 0.1
2017-Sep-25 15:53N 40°29' W 073°39'0 0.0
2017-Sep-25 14:44N 40°29' W 073°39'0 0.0
2017-Sep-25 14:29N 40°29' W 073°39'0 0.0
2017-Sep-25 13:53N 40°29' W 073°39'0 0.0
2017-Sep-25 09:50N 40°29' W 073°39'0 0.1
2017-Sep-25 09:20N 40°29' W 073°39'0 0.0
2017-Sep-25 08:50N 40°29' W 073°39'0 0.0
2017-Sep-25 04:29N 40°29' W 073°39'0 0.0
2017-Sep-25 03:56N 40°29' W 073°39'0 0.0
2017-Sep-25 03:23N 40°29' W 073°39'0 0.0
2017-Sep-25 02:59N 40°29' W 073°39'0 0.0
2017-Sep-25 02:29N 40°29' W 073°39'0 0.0
2017-Sep-25 01:59N 40°29' W 073°39'0 0.0
2017-Sep-25 00:41N 40°29' W 073°39'0 0.0
2017-Sep-25 00:23N 40°29' W 073°39'0 0.0
2017-Sep-24 22:29N 40°29' W 073°39'0 0.0
2017-Sep-24 09:25N 40°29' W 073°39'0 0.1
2017-Sep-24 08:47N 40°29' W 073°39'0 0.1
2017-Sep-24 08:08N 40°29' W 073°39'0 0.0
2017-Sep-24 07:56N 40°29' W 073°39'0 0.0
2017-Sep-24 07:25N 40°29' W 073°39'0 0.0
2017-Sep-24 06:56N 40°29' W 073°39'0 0.1
2017-Sep-24 05:19N 40°29' W 073°39'0 0.0
2017-Sep-24 04:50N 40°29' W 073°39'0 0.0
2017-Sep-24 04:26N 40°29' W 073°39'  
Track history (hours):
 
Tides and Currents Weather Stations Pressure Air Temp Water Temp Dewpoint Dewpoint Depression Visibility Wind Speed Wind Dir Waves Ship Positions

Sti Osceola

Last reported at 2017-Oct-01 23:10 UTC. Time now 2017-Oct-19 02:06 UTC.
Position N 25°28' W 079°33'.
Warning: this ship's position is 17 days out of date.

Length 184 m; draft 8.5 m.

Type: Tanker. MMSI: 538006005.

Date/timePositionNaut miles runAvg speedWind from/ knotsBaromVisibWave heightAir tempDewpointWater temp
2017-Oct-01 23:10N 25°28' W 079°33'311.1
2017-Oct-01 22:56N 25°31' W 079°33'511.2
2017-Oct-01 22:30N 25°36' W 079°32'1111.3
2017-Oct-01 21:30N 25°47' W 079°31'611.6
2017-Oct-01 21:00N 25°53' W 079°29'611.7
2017-Oct-01 20:30N 25°58' W 079°28'611.5
2017-Oct-01 20:00N 26°04' W 079°27'511.1
2017-Oct-01 19:31N 26°10' W 079°26'510.8
2017-Oct-01 19:01N 26°15' W 079°26'  
2017-Sep-28 10:55N 39°06' W 073°25'5 6.5
2017-Sep-28 10:14N 39°10' W 073°23'2 6.2
2017-Sep-28 09:58N 39°12' W 073°22'3 6.1
2017-Sep-28 09:30N 39°14' W 073°21'3 6.2
2017-Sep-28 08:59N 39°17' W 073°20'3 5.9
2017-Sep-28 08:30N 39°20' W 073°19'3 5.9
2017-Sep-28 08:00N 39°23' W 073°17'4 5.4
2017-Sep-28 07:21N 39°26' W 073°16'24 4.7
2017-Sep-28 02:15N 39°50' W 073°21'2 4.8
2017-Sep-28 01:52N 39°52' W 073°20'2 4.8
2017-Sep-28 01:28N 39°54' W 073°19'2 4.7
2017-Sep-28 00:59N 39°56' W 073°20'3 4.7
2017-Sep-28 00:27N 39°58' W 073°20'34 5.1
2017-Sep-27 17:48N 40°25' W 073°48'3 5.9
2017-Sep-27 17:22N 40°27' W 073°50'3 9.0
2017-Sep-27 17:00N 40°29' W 073°53'611.2
2017-Sep-27 16:30N 40°31' W 073°60'510.5
2017-Sep-27 16:00N 40°36' W 074°03'3 4.9
2017-Sep-27 15:28N 40°38' W 074°04'0 0.1
2017-Sep-27 14:58N 40°38' W 074°04'0 0.1
2017-Sep-27 14:28N 40°38' W 074°04'0 0.0
2017-Sep-27 13:58N 40°38' W 074°04'0 0.0
2017-Sep-27 13:28N 40°38' W 074°04'0 0.0
2017-Sep-27 12:58N 40°38' W 074°04'0 0.0
2017-Sep-27 12:28N 40°38' W 074°04'0 0.0
2017-Sep-27 11:55N 40°38' W 074°04'0 0.0
2017-Sep-27 11:28N 40°38' W 074°04'0 0.0
2017-Sep-27 10:58N 40°38' W 074°04'0 0.1
2017-Sep-27 10:31N 40°38' W 074°04'1 2.1
2017-Sep-27 10:01N 40°39' W 074°05'3 6.5
2017-Sep-27 09:30N 40°39' W 074°09'2 4.8
2017-Sep-27 09:00N 40°38' W 074°12'1 1.0
2017-Sep-27 07:34N 40°36' W 074°12'0 0.0
2017-Sep-27 07:28N 40°36' W 074°12'0 0.0
2017-Sep-27 06:58N 40°36' W 074°12'0 0.0
2017-Sep-27 06:22N 40°36' W 074°12'0 0.0
2017-Sep-27 05:52N 40°36' W 074°12'0 0.0
2017-Sep-27 05:28N 40°36' W 074°12'0 0.0
2017-Sep-27 04:58N 40°36' W 074°12'0 0.0
2017-Sep-27 04:28N 40°36' W 074°12'0 0.0
2017-Sep-27 03:58N 40°36' W 074°12'0 0.0
2017-Sep-27 03:22N 40°36' W 074°12'0 0.0
2017-Sep-27 02:58N 40°36' W 074°12'0 0.0
2017-Sep-27 02:28N 40°36' W 074°12'0 0.0
2017-Sep-27 01:52N 40°36' W 074°12'0 0.0
2017-Sep-27 01:25N 40°36' W 074°12'0 0.0
2017-Sep-27 00:22N 40°36' W 074°12'0 0.0
2017-Sep-26 23:43N 40°36' W 074°12'0 0.0
2017-Sep-26 23:28N 40°36' W 074°12'0 0.0
2017-Sep-26 22:43N 40°36' W 074°12'0 0.0
2017-Sep-26 22:28N 40°36' W 074°12'0 0.0
2017-Sep-26 21:49N 40°36' W 074°12'0 0.0
2017-Sep-26 21:28N 40°36' W 074°12'0 0.0
2017-Sep-26 20:58N 40°36' W 074°12'0 0.0
2017-Sep-26 20:22N 40°36' W 074°12'0 0.0
2017-Sep-26 19:52N 40°36' W 074°12'0 0.0
2017-Sep-26 19:28N 40°36' W 074°12'0 0.0
2017-Sep-26 18:55N 40°36' W 074°12'0 0.0
2017-Sep-26 18:25N 40°36' W 074°12'0 0.0
2017-Sep-26 16:58N 40°36' W 074°12'0 0.0
2017-Sep-26 16:25N 40°36' W 074°12'0 0.0
2017-Sep-26 15:58N 40°36' W 074°12'0 0.0
2017-Sep-26 15:28N 40°36' W 074°12'0 0.0
2017-Sep-26 14:55N 40°36' W 074°12'0 0.0
2017-Sep-26 14:22N 40°36' W 074°12'0 0.0
2017-Sep-26 13:46N 40°36' W 074°12'0 0.0
2017-Sep-26 13:28N 40°36' W 074°12'0 0.0
2017-Sep-26 12:52N 40°36' W 074°12'0 0.0
2017-Sep-26 12:28N 40°36' W 074°12'0 0.0
2017-Sep-26 11:40N 40°36' W 074°12'0 0.0
2017-Sep-26 11:28N 40°36' W 074°12'0 0.0
2017-Sep-26 10:58N 40°36' W 074°12'0 0.0
2017-Sep-26 10:28N 40°36' W 074°12'0 0.0
2017-Sep-26 09:58N 40°36' W 074°12'0 0.0
2017-Sep-26 08:55N 40°36' W 074°12'0 0.0
2017-Sep-26 08:28N 40°36' W 074°12'0 0.0
2017-Sep-26 07:46N 40°36' W 074°12'0 0.0
2017-Sep-26 07:16N 40°36' W 074°12'0 0.0
2017-Sep-26 06:58N 40°36' W 074°12'0 0.0
2017-Sep-26 05:28N 40°36' W 074°12'0 0.0
2017-Sep-26 04:58N 40°36' W 074°12'0 0.0
2017-Sep-26 04:28N 40°36' W 074°12'0 0.0
2017-Sep-26 03:58N 40°36' W 074°12'0 0.0
2017-Sep-26 03:28N 40°36' W 074°12'0 0.0
2017-Sep-26 02:58N 40°36' W 074°12'0 0.0
2017-Sep-26 02:10N 40°36' W 074°12'0 0.0
2017-Sep-26 01:52N 40°36' W 074°12'0 0.0
2017-Sep-26 01:28N 40°36' W 074°12'0 0.0
2017-Sep-26 00:58N 40°36' W 074°12'0 0.0
2017-Sep-26 00:10N 40°36' W 074°12'0 0.0
2017-Sep-25 23:55N 40°36' W 074°12'0 0.2
2017-Sep-25 23:31N 40°36' W 074°12'2 4.2
2017-Sep-25 23:00N 40°34' W 074°13'3 5.1
2017-Sep-25 22:29N 40°33' W 074°15'4 3.7
2017-Sep-25 21:22N 40°30' W 074°10'3 8.9
2017-Sep-25 21:00N 40°29' W 074°06'4 9.2
2017-Sep-25 20:30N 40°29' W 074°00'5 9.7
2017-Sep-25 20:01N 40°27' W 073°55'4 8.5
2017-Sep-25 19:30N 40°27' W 073°49'3 6.6
2017-Sep-25 19:00N 40°27' W 073°45'4 7.1
2017-Sep-25 18:30N 40°29' W 073°41'2 3.4
2017-Sep-25 18:00N 40°29' W 073°39'0 0.1
2017-Sep-25 17:23N 40°29' W 073°39'0 0.0
2017-Sep-25 16:11N 40°29' W 073°39'0 0.1
2017-Sep-25 15:53N 40°29' W 073°39'0 0.0
2017-Sep-25 14:44N 40°29' W 073°39'0 0.0
2017-Sep-25 14:29N 40°29' W 073°39'0 0.0
2017-Sep-25 13:53N 40°29' W 073°39'0 0.0
2017-Sep-25 09:50N 40°29' W 073°39'0 0.1
2017-Sep-25 09:20N 40°29' W 073°39'0 0.0
2017-Sep-25 08:50N 40°29' W 073°39'0 0.0
2017-Sep-25 04:29N 40°29' W 073°39'0 0.0
2017-Sep-25 03:56N 40°29' W 073°39'0 0.0
2017-Sep-25 03:23N 40°29' W 073°39'0 0.0
2017-Sep-25 02:59N 40°29' W 073°39'0 0.0
2017-Sep-25 02:29N 40°29' W 073°39'0 0.0
2017-Sep-25 01:59N 40°29' W 073°39'0 0.0
2017-Sep-25 00:41N 40°29' W 073°39'0 0.0
2017-Sep-25 00:23N 40°29' W 073°39'0 0.0
2017-Sep-24 22:29N 40°29' W 073°39'0 0.0
2017-Sep-24 09:25N 40°29' W 073°39'0 0.1
2017-Sep-24 08:47N 40°29' W 073°39'0 0.1
2017-Sep-24 08:08N 40°29' W 073°39'0 0.0
2017-Sep-24 07:56N 40°29' W 073°39'0 0.0
2017-Sep-24 07:25N 40°29' W 073°39'0 0.0
2017-Sep-24 06:56N 40°29' W 073°39'0 0.1
2017-Sep-24 05:19N 40°29' W 073°39'0 0.0
2017-Sep-24 04:50N 40°29' W 073°39'0 0.0
2017-Sep-24 04:26N 40°29' W 073°39'  

Dump ship's entire track history